Time;durP1;ratioP1;P1;durP2;ratioP2;P2;SDS_P1;SDS_P2;PMS_P1;PMS_P2;Temp;Humidity;BMP_temperature;BMP_pressure;BME280_temperature;BME280_humidity;BME280_pressure;Samples;Min_cycle;Max_cycle;Signal;HPM_P1;HPM_P2
2022/05/10 00:02:13;;;;;;;;;29.25;25.50;;;;;19.01;100.00;101686.16;6071589;23;44790;-89
2022/05/10 00:05:15;;;;;;;;;30.00;27.50;;;;;18.97;100.00;101684.72;6046125;23;45056;-88
2022/05/10 00:07:43;;;;;;;;;28.60;20.80;;;;;18.91;100.00;101680.72;6093707;23;44777;-85
2022/05/10 00:10:46;;;;;;;;;30.50;28.00;;;;;18.89;100.00;101676.44;6099827;23;45207;-87
2022/05/10 00:13:46;;;;;;;;;34.00;25.50;;;;;18.84;100.00;101676.00;6182359;22;44836;-88
2022/05/10 00:16:54;;;;;;;;;31.00;31.00;;;;;18.82;100.00;101675.28;6254480;22;45667;-86
2022/05/10 00:22:53;;;;;;;;;34.75;28.00;;;;;18.77;100.00;101672.16;6130885;23;44780;-86
2022/05/10 00:25:35;;;;;;;;;24.50;24.50;;;;;18.73;100.00;101671.56;6020485;23;45293;-85
2022/05/10 00:28:14;;;;;;;;;31.25;29.00;;;;;18.70;100.00;101675.34;6026442;23;45652;-87
2022/05/10 00:30:54;;;;;;;;;31.25;27.25;;;;;18.69;100.00;101675.50;6021889;23;44613;-87
2022/05/10 00:33:31;;;;;;;;;28.75;27.25;;;;;18.64;100.00;101675.84;6047795;23;45330;-86
2022/05/10 00:36:24;;;;;;;;;28.25;24.50;;;;;18.64;100.00;101675.84;6098345;23;44763;-86
2022/05/10 00:39:22;;;;;;;;;27.00;26.50;;;;;18.60;100.00;101679.78;6073337;23;45482;-88
2022/05/10 00:42:06;;;;;;;;;25.75;23.75;;;;;18.53;100.00;101669.69;6098866;23;45433;-88
2022/05/10 00:45:06;;;;;;;;;21.00;19.75;;;;;18.44;100.00;101664.09;6132369;23;44739;-85
2022/05/10 00:48:03;;;;;;;;;31.50;28.25;;;;;18.38;100.00;101658.41;6131832;23;44942;-87
2022/05/10 00:50:50;;;;;;;;;27.50;26.50;;;;;18.32;100.00;101659.75;6018437;23;45468;-86
2022/05/10 00:54:03;;;;;;;;;28.75;25.50;;;;;18.27;100.00;101662.00;6017999;23;44765;-87
2022/05/10 00:56:54;;;;;;;;;25.00;23.25;;;;;18.23;100.00;101649.81;6098950;23;44955;-85
2022/05/10 00:59:47;;;;;;;;;31.75;28.25;;;;;18.17;100.00;101653.00;6126920;23;44804;-87
2022/05/10 01:02:54;;;;;;;;;29.00;24.00;;;;;18.08;100.00;101637.63;6178560;22;46446;-86
2022/05/10 01:05:38;;;;;;;;;29.60;26.80;;;;;18.05;100.00;101640.59;6246529;22;45128;-86
2022/05/10 01:08:18;;;;;;;;;31.50;25.25;;;;;17.96;100.00;101629.63;6225482;22;44715;-86
2022/05/10 01:11:19;;;;;;;;;30.50;25.50;;;;;17.94;100.00;101636.97;6253536;22;45204;-85
2022/05/10 01:14:30;;;;;;;;;27.75;27.00;;;;;17.86;100.00;101636.75;6253687;22;45315;-85
2022/05/10 01:17:06;;;;;;;;;30.75;25.50;;;;;17.83;100.00;101639.69;6157643;23;44742;-85
2022/05/10 01:19:45;;;;;;;;;27.75;26.25;;;;;17.79;100.00;101637.38;6109037;23;44774;-84
2022/05/10 01:22:50;;;;;;;;;26.00;24.25;;;;;17.76;100.00;101635.81;6110982;23;44829;-86
2022/05/10 01:25:59;;;;;;;;;29.50;28.25;;;;;17.71;100.00;101627.25;6115966;23;45170;-85
2022/05/10 01:29:00;;;;;;;;;24.20;22.20;;;;;17.66;100.00;101616.03;6195683;22;44722;-85
2022/05/10 01:33:29;;;;;;;;;25.25;25.25;;;;;17.63;100.00;101622.50;6179723;22;44760;-86
2022/05/10 01:34:48;;;;;;;;;36.75;31.25;;;;;17.62;100.00;101626.16;6222894;22;44881;-86
2022/05/10 01:37:26;;;;;;;;;28.00;25.50;;;;;17.58;100.00;101623.84;6220650;22;45216;-87
2022/05/10 01:40:26;;;;;;;;;33.75;28.75;;;;;17.56;100.00;101623.16;6193818;22;44969;-87
2022/05/10 01:43:21;;;;;;;;;28.50;26.50;;;;;17.51;100.00;101617.31;6102701;23;45301;-86
2022/05/10 01:46:17;;;;;;;;;31.50;29.75;;;;;17.47;100.00;101624.75;6130059;23;45435;-86
2022/05/10 01:48:52;;;;;;;;;30.50;26.75;;;;;17.43;100.00;101609.84;6207925;22;46602;-87
2022/05/10 01:55:00;;;;;;;;;31.75;29.25;;;;;17.36;100.00;101614.88;6259926;22;44724;-85
2022/05/10 01:57:43;;;;;;;;;30.50;29.00;;;;;17.31;100.00;101616.22;6259927;22;44792;-84
2022/05/10 02:10:33;;;;;;;;;33.00;28.25;;;;;17.14;100.00;101604.16;6089241;23;44727;-83
2022/05/10 02:13:45;;;;;;;;;28.50;25.75;;;;;17.12;100.00;101607.00;6079253;23;46602;-86
2022/05/10 02:16:34;;;;;;;;;36.00;33.50;;;;;17.06;100.00;101590.50;6037766;23;44684;-88
2022/05/10 02:19:23;;;;;;;;;26.00;23.25;;;;;17.06;100.00;101594.03;6078946;23;45323;-88
2022/05/10 02:22:05;;;;;;;;;30.25;30.00;;;;;17.06;100.00;101602.09;6099492;23;44755;-88
2022/05/10 02:24:49;;;;;;;;;26.75;26.25;;;;;17.04;100.00;101596.00;6094278;23;46469;-88
2022/05/10 02:27:28;;;;;;;;;35.25;32.50;;;;;17.03;100.00;101598.81;6102979;23;44743;-88
2022/05/10 02:30:31;;;;;;;;;32.50;31.00;;;;;16.99;100.00;101589.31;6084694;23;44770;-87
2022/05/10 02:33:35;;;;;;;;;32.75;30.00;;;;;17.00;100.00;101596.38;6078193;23;44826;-87
2022/05/10 02:36:48;;;;;;;;;36.00;34.00;;;;;16.97;100.00;101594.81;6110656;23;45049;-87
2022/05/10 02:39:53;;;;;;;;;36.00;31.50;;;;;17.00;100.00;101597.22;6040201;23;45132;-86
2022/05/10 02:42:38;;;;;;;;;32.50;31.50;;;;;16.98;100.00;101591.13;5985938;23;44678;-89
2022/05/10 02:45:25;;;;;;;;;34.50;31.00;;;;;16.99;100.00;101590.16;5960001;23;45120;-87
2022/05/10 02:47:54;;;;;;;;;37.25;33.00;;;;;17.00;100.00;101591.84;6097255;23;46758;-87
2022/05/10 02:50:30;;;;;;;;;28.25;27.25;;;;;17.00;100.00;101591.00;6103277;23;45182;-87
2022/05/10 02:53:08;;;;;;;;;34.25;32.25;;;;;17.01;100.00;101582.81;6104591;23;44752;-86
2022/05/10 02:55:43;;;;;;;;;29.00;27.75;;;;;17.01;100.00;101585.50;6126166;23;45046;-85
2022/05/10 02:58:27;;;;;;;;;34.75;32.00;;;;;17.02;100.00;101580.97;6125445;23;45348;-85
2022/05/10 03:01:16;;;;;;;;;32.75;28.75;;;;;17.04;100.00;101579.91;6131020;23;44712;-87
2022/05/10 03:03:41;;;;;;;;;33.75;31.00;;;;;17.05;100.00;101576.22;6105000;23;44825;-85
2022/05/10 03:06:07;;;;;;;;;35.75;31.25;;;;;17.08;100.00;101575.13;6128601;23;44840;-84
2022/05/10 03:08:33;;;;;;;;;31.50;30.00;;;;;17.09;100.00;101568.78;6128618;23;45114;-86
2022/05/10 03:10:59;;;;;;;;;30.25;30.25;;;;;17.07;100.00;101568.91;6128528;23;44795;-85
2022/05/10 03:13:25;;;;;;;;;35.25;31.00;;;;;17.10;100.00;101567.81;6150614;23;44786;-86
2022/05/10 03:15:50;;;;;;;;;30.00;29.25;;;;;17.09;100.00;101560.72;6201768;22;44882;-85
2022/05/10 03:18:16;;;;;;;;;28.25;28.25;;;;;17.09;100.00;101558.91;6247624;22;45172;-87
2022/05/10 03:20:42;;;;;;;;;28.75;28.50;;;;;17.12;100.00;101572.09;6219742;22;45294;-85
2022/05/10 03:23:07;;;;;;;;;40.50;34.50;;;;;17.13;100.00;101565.72;6243756;22;45219;-87
2022/05/10 03:25:33;;;;;;;;;32.50;30.50;;;;;17.13;100.00;101562.19;6218778;22;44805;-86
2022/05/10 03:28:05;;;;;;;;;32.50;31.75;;;;;17.13;100.00;101564.88;6245660;22;45574;-86
2022/05/10 03:30:31;;;;;;;;;37.00;31.00;;;;;17.11;100.00;101564.97;6251580;22;44691;-86
2022/05/10 03:32:57;;;;;;;;;30.00;29.25;;;;;17.10;100.00;101554.38;6253103;22;44800;-86
2022/05/10 03:35:23;;;;;;;;;33.75;29.75;;;;;17.08;100.00;101550.97;6255324;22;44932;-85
2022/05/10 03:37:48;;;;;;;;;37.50;30.25;;;;;17.06;100.00;101551.06;6226157;22;46560;-86
2022/05/10 03:40:14;;;;;;;;;29.50;29.50;;;;;17.01;100.00;101545.22;6251200;22;44808;-87
2022/05/10 03:42:48;;;;;;;;;34.75;29.00;;;;;17.00;100.00;101554.28;6255323;22;45362;-86
2022/05/10 03:45:16;;;;;;;;;17.50;13.50;;;;;16.99;100.00;101549.88;6250579;22;44905;-87
2022/05/10 03:47:42;;;;;;;;;36.25;33.50;;;;;16.95;100.00;101551.09;6247915;22;45390;-86
2022/05/10 03:50:09;;;;;;;;;33.00;30.50;;;;;16.92;100.00;101544.16;6218800;22;44810;-85
2022/05/10 03:52:37;;;;;;;;;40.75;35.00;;;;;16.91;100.00;101541.59;6253466;22;45421;-86
2022/05/10 03:55:03;;;;;;;;;33.75;30.75;;;;;16.86;100.00;101539.28;6226178;22;44738;-86
2022/05/10 03:57:29;;;;;;;;;33.75;31.50;;;;;16.83;100.00;101544.91;6242829;22;45404;-86
2022/05/10 03:59:54;;;;;;;;;38.67;31.33;;;;;16.81;100.00;101538.78;6217652;22;44704;-88
2022/05/10 04:02:20;;;;;;;;;32.00;31.33;;;;;16.80;100.00;101541.59;6222275;22;44785;-86
2022/05/10 04:04:45;;;;;;;;;39.67;34.00;;;;;16.78;100.00;101536.38;6252582;22;44849;-85
2022/05/10 04:07:12;;;;;;;;;40.50;36.00;;;;;16.77;100.00;101537.31;6246743;22;45348;-85
2022/05/10 04:09:38;;;;;;;;;38.75;34.75;;;;;16.79;100.00;101539.91;6222268;22;44772;-86
2022/05/10 04:12:04;;;;;;;;;30.25;25.50;;;;;16.79;100.00;101535.38;6244941;22;44700;-85
2022/05/10 04:14:30;;;;;;;;;36.50;33.25;;;;;16.80;100.00;101538.94;6241968;22;45417;-85
2022/05/10 04:16:55;;;;;;;;;32.00;30.50;;;;;16.80;100.00;101534.41;6216333;22;45088;-86
2022/05/10 04:19:21;;;;;;;;;41.75;32.75;;;;;16.80;100.00;101537.09;6216605;22;44734;-86
2022/05/10 04:21:48;;;;;;;;;41.00;33.00;;;;;16.85;100.00;101547.47;6250590;22;45423;-85
2022/05/10 04:24:13;;;;;;;;;32.00;30.50;;;;;16.88;100.00;101549.91;6223923;22;45236;-87
2022/05/10 04:26:39;;;;;;;;;33.25;32.75;;;;;16.90;100.00;101542.56;6243894;22;46728;-86
2022/05/10 04:29:05;;;;;;;;;35.00;31.75;;;;;16.94;100.00;101541.34;6248425;22;44762;-87
2022/05/10 04:31:32;;;;;;;;;32.50;30.75;;;;;16.96;100.00;101536.69;6264953;22;44729;-87
2022/05/10 04:33:57;;;;;;;;;36.00;35.00;;;;;16.99;100.00;101539.16;6238799;22;44954;-87
2022/05/10 04:36:24;;;;;;;;;34.50;30.75;;;;;17.00;100.00;101546.22;6259728;22;45097;-86
2022/05/10 04:38:51;;;;;;;;;39.25;34.25;;;;;17.03;100.00;101545.97;6254531;22;44745;-87
2022/05/10 04:41:27;;;;;;;;;34.75;32.75;;;;;17.07;100.00;101541.22;6251817;22;44838;-86
2022/05/10 04:43:55;;;;;;;;;37.00;32.25;;;;;17.10;100.00;101544.47;6251600;22;45118;-86
2022/05/10 04:46:21;;;;;;;;;36.75;33.50;;;;;17.13;100.00;101538.03;6247863;22;45192;-86
2022/05/10 04:48:46;;;;;;;;;35.25;30.75;;;;;17.16;100.00;101538.63;6242820;22;45196;-86
2022/05/10 04:51:12;;;;;;;;;34.50;29.25;;;;;17.23;100.00;101548.88;6243930;22;44798;-87
2022/05/10 04:53:38;;;;;;;;;38.00;35.00;;;;;17.23;100.00;101538.97;6242385;22;44773;-86
2022/05/10 04:56:04;;;;;;;;;37.50;31.75;;;;;17.26;100.00;101536.03;6244034;22;46873;-87
2022/05/10 04:58:30;;;;;;;;;31.50;29.25;;;;;17.30;100.00;101544.69;6227404;22;44724;-86
2022/05/10 05:01:01;;;;;;;;;37.00;30.75;;;;;17.32;100.00;101548.97;6226216;22;44717;-86
2022/05/10 05:03:26;;;;;;;;;39.00;32.00;;;;;17.35;100.00;101539.78;6228066;22;45291;-87
2022/05/10 05:05:52;;;;;;;;;36.00;32.00;;;;;17.39;100.00;101544.78;6250154;22;45322;-86
2022/05/10 05:08:17;;;;;;;;;31.25;29.00;;;;;17.42;100.00;101549.06;6251984;22;44757;-87
2022/05/10 05:10:45;;;;;;;;;31.25;30.50;;;;;17.45;100.00;101548.78;6256097;22;44750;-88
2022/05/10 05:13:11;;;;;;;;;36.75;30.50;;;;;17.44;100.00;101545.25;6368374;22;44837;-88
2022/05/10 05:15:39;;;;;;;;;34.75;30.00;;;;;17.46;100.00;101548.69;6372829;22;46408;-88
2022/05/10 05:18:07;;;;;;;;;32.50;31.75;;;;;17.50;100.00;101548.41;6373038;22;44777;-87
2022/05/10 05:20:34;;;;;;;;;29.25;29.25;;;;;17.52;100.00;101543.78;6374857;22;45255;-87
2022/05/10 05:23:01;;;;;;;;;20.75;19.25;;;;;17.54;100.00;101544.47;6373024;22;44762;-86
2022/05/10 05:25:27;;;;;;;;;33.00;30.25;;;;;17.53;100.00;101538.25;6376764;22;45247;-88
2022/05/10 05:27:54;;;;;;;;;31.50;28.00;;;;;17.54;100.00;101550.72;6375589;22;45127;-86
2022/05/10 05:30:19;;;;;;;;;30.00;30.00;;;;;17.53;100.00;101556.22;6382087;22;44733;-87
2022/05/10 05:32:45;;;;;;;;;32.75;30.00;;;;;17.57;100.00;101552.31;6344533;22;45326;-88
2022/05/10 05:35:13;;;;;;;;;28.50;27.75;;;;;17.59;100.00;101555.69;6371513;22;45224;-87
2022/05/10 05:37:39;;;;;;;;;33.25;30.75;;;;;17.61;100.00;101557.28;6373437;22;45174;-88
2022/05/10 05:40:08;;;;;;;;;33.25;26.00;;;;;17.62;100.00;101548.25;6383751;22;45179;-88
2022/05/10 05:42:35;;;;;;;;;33.50;28.25;;;;;17.66;100.00;101549.69;6377093;22;44740;-88
2022/05/10 05:45:01;;;;;;;;;29.50;28.00;;;;;17.69;100.00;101554.78;6351750;22;45087;-86
2022/05/10 05:47:31;;;;;;;;;28.00;27.00;;;;;17.75;100.00;101558.00;6384658;22;44758;-87
2022/05/10 05:50:01;;;;;;;;;31.00;28.50;;;;;17.78;100.00;101555.88;6337567;22;44643;-88
2022/05/10 05:52:27;;;;;;;;;41.25;28.50;;;;;17.84;100.00;101562.56;6362284;22;44856;-87
2022/05/10 05:54:53;;;;;;;;;34.00;27.75;;;;;17.91;100.00;101561.94;6387716;22;45203;-88
2022/05/10 05:57:20;;;;;;;;;30.00;28.75;;;;;17.97;100.00;101558.72;6387173;22;44747;-85
2022/05/10 05:59:48;;;;;;;;;32.00;27.00;;;;;18.05;100.00;101557.25;6359919;22;44668;-85
2022/05/10 06:02:18;;;;;;;;;37.25;28.50;;;;;18.12;100.00;101555.72;6382007;22;44763;-87
2022/05/10 06:04:45;;;;;;;;;28.25;27.25;;;;;18.18;100.00;101558.75;6353696;22;45569;-88
2022/05/10 06:07:12;;;;;;;;;29.50;25.00;;;;;18.23;100.00;101556.50;6381710;22;44650;-87
2022/05/10 06:09:38;;;;;;;;;37.50;29.50;;;;;18.32;100.00;101554.84;6378925;22;44613;-85
2022/05/10 06:12:05;;;;;;;;;28.75;26.75;;;;;18.42;100.00;101554.91;6384577;22;44906;-85
2022/05/10 06:14:32;;;;;;;;;40.50;27.50;;;;;18.53;100.00;101559.38;6351466;22;45195;-86
2022/05/10 06:16:58;;;;;;;;;35.00;32.00;;;;;18.61;100.00;101562.22;6381388;22;45326;-84
2022/05/10 06:19:24;;;;;;;;;32.75;28.25;;;;;18.71;100.00;101555.94;6380584;22;44711;-86
2022/05/10 06:21:51;;;;;;;;;34.25;27.00;;;;;18.80;100.00;101553.41;6384452;22;45407;-86
2022/05/10 06:24:17;;;;;;;;;35.75;31.00;;;;;18.92;100.00;101553.19;6389500;22;45014;-84
2022/05/10 06:26:49;;;;;;;;;37.75;32.50;;;;;19.05;100.00;101552.94;6386981;22;44606;-84
2022/05/10 06:29:14;;;;;;;;;26.50;26.25;;;;;19.19;100.00;101554.38;6389027;22;44708;-86
2022/05/10 06:31:42;;;;;;;;;32.75;27.00;;;;;19.32;100.00;101554.13;6358772;22;44857;-86
2022/05/10 06:34:09;;;;;;;;;31.50;27.75;;;;;19.45;100.00;101555.56;6358283;22;46274;-85
2022/05/10 06:36:35;;;;;;;;;26.80;25.80;;;;;19.59;100.00;101551.59;6381388;22;44791;-85
2022/05/10 06:39:01;;;;;;;;;28.50;24.50;;;;;19.78;100.00;101548.09;6373031;22;45330;-84
2022/05/10 06:41:26;;;;;;;;;26.50;24.50;;;;;20.01;100.00;101546.75;6347617;22;45024;-85
2022/05/10 06:43:52;;;;;;;;;26.25;24.00;;;;;20.24;100.00;101549.13;6378570;22;44990;-85
2022/05/10 06:46:20;;;;;;;;;26.75;23.50;;;;;20.53;100.00;101538.28;6371842;22;44680;-85
2022/05/10 06:48:46;;;;;;;;;32.25;29.00;;;;;20.88;100.00;101536.72;6377628;22;44687;-85
2022/05/10 06:51:13;;;;;;;;;31.75;27.75;;;;;21.28;100.00;101542.59;6384549;22;45145;-84
2022/05/10 06:53:39;;;;;;;;;29.50;24.25;;;;;21.60;100.00;101540.38;6386110;22;44933;-84
2022/05/10 06:56:05;;;;;;;;;23.00;21.40;;;;;21.78;100.00;101536.66;6374006;22;44816;-84
2022/05/10 06:58:31;;;;;;;;;23.20;21.40;;;;;;;;6352055;22;44733;-85
2022/05/10 07:00:56;;;;;;;;;22.00;18.25;;;;;22.08;100.00;101535.38;6380209;22;45343;-84
2022/05/10 07:03:28;;;;;;;;;18.75;17.50;;;;;22.22;100.00;101538.56;6372367;22;45982;-85
2022/05/10 07:05:55;;;;;;;;;20.20;19.20;;;;;22.24;100.00;101534.69;6347154;22;44678;-84
2022/05/10 07:08:21;;;;;;;;;22.00;20.60;;;;;22.33;100.00;101539.13;6383681;22;44827;-85
2022/05/10 07:10:46;;;;;;;;;17.40;16.60;;;;;22.42;100.00;101536.47;6383195;22;44754;-85
2022/05/10 07:13:16;;;;;;;;;19.75;18.50;;;;;22.51;100.00;101536.34;6375956;22;45002;-85
2022/05/10 07:15:42;;;;;;;;;19.40;18.00;;;;;22.54;100.00;101540.63;6379838;22;44759;-85
2022/05/10 07:18:07;;;;;;;;;20.75;18.50;;;;;22.60;100.00;101531.84;6380803;22;44720;-85
2022/05/10 07:20:33;;;;;;;;;18.25;18.25;;;;;22.65;100.00;101526.78;6385449;22;44760;-85
2022/05/10 07:22:58;;;;;;;;;18.25;16.00;;;;;22.74;100.00;101527.69;6388525;22;45068;-85
2022/05/10 07:25:25;;;;;;;;;21.75;21.75;;;;;22.67;100.00;101532.03;6351717;22;45088;-86
2022/05/10 07:27:52;;;;;;;;;21.20;18.40;;;;;22.60;100.00;101515.59;6370314;22;45251;-86
2022/05/10 07:30:19;;;;;;;;;17.00;17.00;;;;;22.64;100.00;101524.25;6373535;22;44910;-86
2022/05/10 07:32:45;;;;;;;;;16.80;16.80;;;;;22.71;100.00;101526.13;6368946;22;45322;-83
2022/05/10 07:35:11;;;;;;;;;16.00;16.00;;;;;22.73;100.00;101526.81;6369704;22;45095;-84
2022/05/10 07:37:38;;;;;;;;;19.75;18.75;;;;;22.82;100.00;101516.84;6367946;22;44720;-84
2022/05/10 07:40:04;;;;;;;;;19.40;17.40;;;;;22.90;100.00;101522.34;6368627;22;45238;-84
2022/05/10 07:42:30;;;;;;;;;18.40;16.40;;;;;23.08;100.00;101528.50;6367407;22;46699;-82
2022/05/10 07:44:55;;;;;;;;;18.75;17.25;;;;;23.15;100.00;101519.69;6372013;22;44754;-84
2022/05/10 07:47:21;;;;;;;;;20.25;18.75;;;;;23.04;99.29;101523.56;6371383;22;44861;-83
2022/05/10 07:49:46;;;;;;;;;23.00;19.50;;;;;23.03;100.00;101522.72;6370389;22;45385;-84
2022/05/10 07:52:14;;;;;;;;;19.75;18.50;;;;;22.89;100.00;101522.50;6378181;22;45418;-84
2022/05/10 07:54:40;;;;;;;;;17.20;15.60;;;;;22.84;100.00;101521.09;6379190;22;45485;-84
2022/05/10 07:57:06;;;;;;;;;18.75;17.25;;;;;22.76;100.00;101531.06;6376221;22;44661;-84
2022/05/10 07:59:31;;;;;;;;;14.75;14.75;;;;;22.72;100.00;101521.56;6366300;22;44913;-83
2022/05/10 08:01:58;;;;;;;;;18.50;18.50;;;;;22.72;100.00;101516.97;6366305;22;46650;-83
2022/05/10 08:04:23;;;;;;;;;18.60;15.80;;;;;22.93;100.00;101510.34;6369773;22;44620;-84
2022/05/10 08:06:50;;;;;;;;;15.00;14.50;;;;;23.18;100.00;101522.09;6370772;22;45229;-83
2022/05/10 08:09:16;;;;;;;;;18.40;16.20;;;;;23.43;98.92;101526.53;6369641;22;44626;-83
2022/05/10 08:11:43;;;;;;;;;18.20;17.40;;;;;23.61;99.19;101520.97;6340864;22;46798;-83
2022/05/10 08:14:09;;;;;;;;;19.80;18.00;;;;;23.72;97.62;101519.81;6369441;22;44723;-86
2022/05/10 08:16:34;;;;;;;;;18.50;16.25;;;;;23.73;96.31;101516.91;6343851;22;44743;-83
2022/05/10 08:19:00;;;;;;;;;22.00;19.00;;;;;23.87;97.51;101528.13;6376317;22;44736;-84
2022/05/10 08:21:25;;;;;;;;;17.50;16.25;;;;;23.97;96.52;101528.78;6375339;22;45291;-85
2022/05/10 08:23:53;;;;;;;;;15.00;14.75;;;;;24.00;96.36;101529.31;6376089;22;44688;-85
2022/05/10 08:26:20;;;;;;;;;18.60;15.80;;;;;24.10;96.03;101534.53;6372494;22;45356;-85
2022/05/10 08:28:45;;;;;;;;;17.50;15.75;;;;;24.21;96.15;101527.91;6347595;22;44880;-87
2022/05/10 08:31:11;;;;;;;;;10.50;10.50;;;;;24.17;95.21;101530.09;6375003;22;44872;-87
2022/05/10 08:33:38;;;;;;;;;15.00;14.50;;;;;24.34;94.78;101531.78;6375787;22;44707;-86
2022/05/10 08:36:04;;;;;;;;;15.80;15.60;;;;;24.48;92.91;101535.69;6372497;22;44866;-86
2022/05/10 08:38:31;;;;;;;;;15.80;14.40;;;;;24.57;91.68;101537.38;6370306;22;44760;-85
2022/05/10 08:41:05;;;;;;;;;19.00;18.20;;;;;24.51;91.69;101520.91;6345053;22;46681;-86
2022/05/10 08:43:40;;;;;;;;;16.60;15.00;;;;;24.53;92.04;101527.84;6378863;22;44696;-87
2022/05/10 08:46:09;;;;;;;;;14.40;11.60;;;;;24.62;90.39;101523.25;6350607;22;44668;-86
2022/05/10 08:48:35;;;;;;;;;16.00;16.00;;;;;24.67;89.88;101536.31;6383457;22;44820;-87
2022/05/10 08:51:02;;;;;;;;;15.25;15.00;;;;;24.72;89.49;101517.59;6382730;22;45282;-86
2022/05/10 08:53:28;;;;;;;;;14.40;14.40;;;;;24.64;88.50;101515.75;6352928;22;45240;-86
2022/05/10 08:56:11;;;;;;;;;14.80;13.20;;;;;24.78;89.07;101520.47;6379239;22;44774;-87
2022/05/10 08:59:24;;;;;;;;;17.00;14.20;;;;;25.00;90.04;101510.69;6379030;22;44787;-85
2022/05/10 09:02:07;;;;;;;;;21.00;16.40;;;;;25.17;85.30;101522.31;6378360;22;45596;-88
2022/05/10 09:05:23;;;;;;;;;19.80;12.60;;;;;25.42;84.97;101519.44;6379680;22;45153;-86
2022/05/10 09:08:45;;;;;;;;;14.20;13.20;;;;;25.52;83.90;101520.03;6253945;22;44829;-86
2022/05/10 09:11:14;;;;;;;;;13.20;13.20;;;;;25.59;83.57;101526.47;6181410;23;44807;-84
2022/05/10 09:13:42;;;;;;;;;12.80;11.40;;;;;25.79;82.81;101518.69;6181412;23;45546;-83
2022/05/10 09:16:10;;;;;;;;;10.60;9.00;;;;;25.92;84.88;101516.19;6158323;23;44809;-86
2022/05/10 09:18:50;;;;;;;;;16.80;12.80;;;;;26.08;80.71;101512.44;6164503;23;44680;-85
2022/05/10 09:21:27;;;;;;;;;15.00;15.00;;;;;26.04;78.87;101509.25;6195396;23;44656;-83
2022/05/10 09:24:20;;;;;;;;;11.80;11.80;;;;;25.86;79.79;101509.56;6164373;23;45232;-84
2022/05/10 09:26:51;;;;;;;;;12.40;12.40;;;;;26.21;78.32;101507.22;6183716;23;44702;-86
2022/05/10 09:29:47;;;;;;;;;13.80;13.60;;;;;26.44;74.84;101511.75;6156548;23;45363;-81
2022/05/10 09:35:09;;;;;;;;;11.80;10.80;;;;;26.82;71.54;101513.31;6181436;23;45157;-87
2022/05/10 09:37:53;;;;;;;;;17.00;15.60;;;;;26.83;71.50;101509.53;6158435;23;45334;-84
2022/05/10 09:40:19;;;;;;;;;13.60;13.60;;;;;27.00;69.53;101504.72;6192182;23;44648;-87
2022/05/10 09:42:47;;;;;;;;;12.00;11.25;;;;;27.13;69.73;101506.81;6366166;22;44845;-87
2022/05/10 09:45:21;;;;;;;;;12.40;12.40;;;;;27.13;69.04;101499.47;6378615;22;46626;-87
2022/05/10 09:47:58;;;;;;;;;15.20;13.80;;;;;27.06;69.58;101501.22;6348122;22;44719;-86
2022/05/10 09:50:29;;;;;;;;;15.00;13.80;;;;;27.00;68.98;101498.44;6377861;22;45350;-85
2022/05/10 09:53:07;;;;;;;;;12.60;12.60;;;;;27.08;70.63;101495.63;6381295;22;44758;-86
2022/05/10 09:55:33;;;;;;;;;10.00;10.00;;;;;27.08;69.68;101495.63;6375321;22;45307;-86
2022/05/10 09:58:12;;;;;;;;;14.00;12.50;;;;;27.05;68.83;101495.97;6375245;22;45706;-84
2022/05/10 10:00:43;;;;;;;;;12.40;10.80;;;;;26.92;70.10;101492.03;6350117;22;44773;-86
2022/05/10 10:03:09;;;;;;;;;15.40;14.40;;;;;26.99;70.70;101483.94;6379572;22;44810;-86
2022/05/10 10:05:37;;;;;;;;;11.00;11.00;;;;;27.02;70.63;101490.88;6380717;22;45212;-86
2022/05/10 10:08:02;;;;;;;;;11.80;10.20;;;;;27.14;67.53;101483.94;6347768;22;45264;-86
2022/05/10 10:10:32;;;;;;;;;12.50;12.50;;;;;27.23;67.73;101484.66;6377612;22;44712;-87
2022/05/10 10:12:58;;;;;;;;;12.80;8.60;;;;;27.27;65.94;101475.03;6378810;22;44855;-87
2022/05/10 10:15:43;;;;;;;;;15.80;14.00;;;;;27.22;66.98;101482.94;6378580;22;45015;-87
2022/05/10 10:18:11;;;;;;;;;14.20;14.20;;;;;27.07;66.65;101481.09;6343493;22;44766;-86
2022/05/10 10:20:54;;;;;;;;;13.20;11.40;;;;;27.26;66.13;101476.06;6380074;22;44725;-86
2022/05/10 10:23:37;;;;;;;;;14.80;13.60;;;;;27.37;65.13;101470.13;6356444;22;44907;-87
2022/05/10 10:26:26;;;;;;;;;11.40;11.40;;;;;27.40;63.72;101477.91;6376527;22;45340;-86
2022/05/10 10:29:11;;;;;;;;;14.60;12.20;;;;;27.24;61.42;101472.72;6371229;22;44853;-87
2022/05/10 10:31:55;;;;;;;;;10.40;9.60;;;;;27.15;63.17;101481.00;6371564;22;44643;-89
2022/05/10 10:34:33;;;;;;;;;14.00;11.40;;;;;26.96;63.13;101473.41;6371068;22;44641;-87
2022/05/10 10:37:11;;;;;;;;;10.00;10.00;;;;;27.02;64.22;101482.72;6372010;22;45294;-87
2022/05/10 10:39:50;;;;;;;;;8.20;6.60;;;;;27.03;62.56;101488.00;6369828;22;44704;-87
2022/05/10 10:42:51;;;;;;;;;11.80;10.40;;;;;26.96;62.39;101478.88;6376114;22;44692;-87
2022/05/10 10:45:18;;;;;;;;;8.20;8.00;;;;;26.85;62.06;101485.69;6376481;22;44878;-86
2022/05/10 10:47:54;;;;;;;;;7.80;7.80;;;;;26.83;61.19;101481.44;6373828;22;45220;-87
2022/05/10 10:50:25;;;;;;;;;12.40;10.40;;;;;26.97;60.26;101480.56;6373246;22;44775;-88
2022/05/10 10:52:54;;;;;;;;;9.40;9.40;;;;;27.06;61.23;101478.56;6374449;22;45210;-86
2022/05/10 10:55:21;;;;;;;;;10.40;9.60;;;;;27.15;60.03;101482.91;6383536;22;44650;-87
2022/05/10 10:58:18;;;;;;;;;9.60;9.20;;;;;27.20;61.26;101474.13;6383467;22;45053;-86
2022/05/10 11:00:53;;;;;;;;;11.20;11.20;;;;;27.25;61.97;101468.94;6348199;22;45183;-86
2022/05/10 11:03:40;;;;;;;;;7.40;7.40;;;;;27.13;57.37;101472.19;6376754;22;44727;-87
2022/05/10 11:06:20;;;;;;;;;11.20;9.80;;;;;27.08;57.24;101468.34;6368747;22;44772;-87
2022/05/10 11:09:14;;;;;;;;;10.40;8.60;;;;;26.94;56.25;101474.66;6372480;22;46847;-87
2022/05/10 11:11:59;;;;;;;;;11.60;11.60;;;;;26.77;58.40;101471.31;6348744;22;44709;-87
2022/05/10 11:14:51;;;;;;;;;6.60;6.60;;;;;26.84;60.97;101453.16;6375431;22;44811;-86
2022/05/10 11:17:51;;;;;;;;;9.80;9.80;;;;;27.02;60.35;101458.16;6373318;22;44775;-87
2022/05/10 11:20:29;;;;;;;;;8.60;8.60;;;;;27.22;61.07;101444.75;6370785;22;45181;-87
2022/05/10 11:23:08;;;;;;;;;7.20;7.20;;;;;27.43;57.76;101444.75;6343019;22;45209;-86
2022/05/10 11:26:04;;;;;;;;;8.80;8.60;;;;;27.56;58.51;101441.28;6376169;22;44713;-86
2022/05/10 11:28:46;;;;;;;;;10.20;10.20;;;;;27.74;58.73;101440.84;6375498;22;44795;-86
2022/05/10 11:31:36;;;;;;;;;11.80;11.80;;;;;27.80;55.90;101440.03;6343594;22;46608;-87
2022/05/10 11:34:29;;;;;;;;;11.40;9.40;;;;;27.59;55.40;101438.16;6343201;22;44747;-87
2022/05/10 11:36:59;;;;;;;;;9.40;9.40;;;;;27.73;54.93;101440.00;6351570;22;44768;-86
2022/05/10 11:40:06;;;;;;;;;9.00;9.00;;;;;28.05;54.23;101426.78;6377050;22;44736;-87
2022/05/10 11:42:38;;;;;;;;;10.60;10.60;;;;;27.89;53.76;101417.84;6244947;22;44930;-86
2022/05/10 11:45:40;;;;;;;;;8.00;7.80;;;;;27.52;51.57;101429.94;6246439;22;44843;-86
2022/05/10 11:48:15;;;;;;;;;9.00;9.00;;;;;27.58;50.14;101422.84;6248986;22;44857;-86
2022/05/10 11:53:52;;;;;;;;;9.80;9.80;;;;;27.59;51.98;101427.25;6245655;22;45391;-86
2022/05/10 11:56:18;;;;;;;;;7.20;7.20;;;;;27.94;50.60;101425.44;6217338;22;44691;-85
2022/05/10 11:58:44;;;;;;;;;10.00;10.00;;;;;28.22;49.98;101419.09;6220580;22;45275;-86
2022/05/10 12:01:12;;;;;;;;;11.00;10.20;;;;;28.31;48.71;101415.97;6214453;22;44853;-87
2022/05/10 12:03:43;;;;;;;;;9.40;8.80;;;;;27.93;47.60;101416.41;6214620;22;45045;-85
2022/05/10 12:06:24;;;;;;;;;8.80;8.80;;;;;28.18;47.30;101411.28;6191217;22;45502;-86